createdAt,value
2019-06-10T00:02:16.054Z,18.20
2019-06-10T00:07:53.559Z,18.10
2019-06-10T00:10:31.776Z,18.10
2019-06-10T00:13:25.333Z,18.20
2019-06-10T00:15:57.276Z,17.90
2019-06-10T00:18:45.715Z,17.90
2019-06-10T00:21:15.146Z,18.00
2019-06-10T00:24:26.712Z,18.00
2019-06-10T00:27:05.507Z,17.90
2019-06-10T00:29:37.439Z,17.70
2019-06-10T00:32:08.546Z,17.60
2019-06-10T00:34:59.403Z,17.70
2019-06-10T00:37:35.499Z,17.80
2019-06-10T00:40:10.052Z,17.90
2019-06-10T00:42:45.239Z,17.70
2019-06-10T00:45:23.186Z,17.60
2019-06-10T00:48:20.735Z,17.50
2019-06-10T00:50:43.138Z,17.40
2019-06-10T00:53:14.483Z,17.40
2019-06-10T00:55:45.797Z,17.30
2019-06-10T00:59:15.787Z,17.30
2019-06-10T01:01:50.909Z,17.60
2019-06-10T01:04:47.838Z,17.50
2019-06-10T01:07:52.276Z,17.60
2019-06-10T01:11:21.573Z,17.60
2019-06-10T01:13:57.823Z,17.60
2019-06-10T01:16:31.883Z,17.50
2019-06-10T01:19:18.775Z,17.50
2019-06-10T01:21:50.998Z,17.40
2019-06-10T01:24:22.326Z,17.50
2019-06-10T01:26:52.748Z,17.50
2019-06-10T01:29:28.719Z,17.50
2019-06-10T01:32:09.757Z,17.50
2019-06-10T01:35:17.454Z,17.50
2019-06-10T01:37:56.571Z,17.50
2019-06-10T01:40:44.842Z,17.40
2019-06-10T01:43:21.213Z,17.40
2019-06-10T01:45:54.174Z,17.40
2019-06-10T01:48:38.047Z,17.40
2019-06-10T01:51:02.593Z,17.30
2019-06-10T01:56:31.500Z,17.50
2019-06-10T01:59:04.348Z,17.40
2019-06-10T02:01:43.543Z,17.40
2019-06-10T02:04:16.681Z,17.30
2019-06-10T02:06:47.627Z,17.30
2019-06-10T02:09:18.815Z,17.40
2019-06-10T02:11:51.323Z,17.30
2019-06-10T02:14:24.197Z,17.40
2019-06-10T02:17:02.891Z,17.30
2019-06-10T02:19:53.157Z,17.30
2019-06-10T02:22:26.844Z,17.40
2019-06-10T02:24:56.906Z,17.30
2019-06-10T02:27:50.736Z,17.30
2019-06-10T02:30:36.217Z,17.30
2019-06-10T02:33:02.409Z,17.30
2019-06-10T02:35:44.221Z,17.40
2019-06-10T02:38:16.861Z,17.20
2019-06-10T02:40:44.958Z,17.30
2019-06-10T02:43:20.805Z,17.30
2019-06-10T02:45:49.113Z,17.20
2019-06-10T02:48:43.640Z,17.40
2019-06-10T02:51:30.620Z,17.20
2019-06-10T02:54:20.219Z,17.10
2019-06-10T02:56:53.954Z,17.30
2019-06-10T02:59:27.456Z,17.10
2019-06-10T03:02:06.762Z,17.10
2019-06-10T03:04:37.893Z,17.10
2019-06-10T03:07:13.723Z,17.00
2019-06-10T03:10:30.016Z,17.00
2019-06-10T03:13:26.626Z,17.00
2019-06-10T03:16:23.983Z,16.90
2019-06-10T03:34:45.991Z,17.20
2019-06-10T03:37:39.490Z,17.20
2019-06-10T03:40:32.671Z,17.20
2019-06-10T03:46:40.229Z,17.00
2019-06-10T03:49:52.341Z,17.10
2019-06-10T03:52:37.808Z,17.10
2019-06-10T03:55:26.308Z,17.10
2019-06-10T03:58:25.951Z,17.10
2019-06-10T04:00:56.721Z,17.10
2019-06-10T04:04:25.183Z,17.20
2019-06-10T04:06:57.479Z,17.20
2019-06-10T04:09:28.808Z,17.20
2019-06-10T04:12:24.695Z,17.20
2019-06-10T04:14:57.081Z,17.20
2019-06-10T04:17:39.489Z,17.40
2019-06-10T04:20:15.468Z,18.50
2019-06-10T04:22:44.569Z,17.30
2019-06-10T04:25:19.586Z,17.30
2019-06-10T04:28:13.074Z,17.40
2019-06-10T04:30:44.578Z,17.40
2019-06-10T04:33:18.284Z,17.30
2019-06-10T04:35:52.024Z,17.40
2019-06-10T04:38:23.367Z,17.30
2019-06-10T04:40:53.281Z,17.40
2019-06-10T04:43:26.015Z,17.70
2019-06-10T04:45:56.982Z,17.60
2019-06-10T04:48:28.066Z,17.50
2019-06-10T04:50:59.262Z,17.50
2019-06-10T04:53:29.439Z,17.40
2019-06-10T04:55:59.222Z,17.60
2019-06-10T04:58:30.090Z,17.70
2019-06-10T05:00:59.858Z,17.70
2019-06-10T05:03:29.632Z,17.50
2019-06-10T05:05:59.375Z,17.60
2019-06-10T05:08:29.631Z,17.70
2019-06-10T05:10:59.298Z,17.70
2019-06-10T05:13:30.006Z,17.30
2019-06-10T05:16:00.063Z,17.30
2019-06-10T05:18:30.317Z,17.40
2019-06-10T05:21:02.495Z,17.50
2019-06-10T05:23:32.969Z,17.70
2019-06-10T05:26:03.115Z,17.60
2019-06-10T05:28:34.222Z,17.60
2019-06-10T05:31:04.270Z,17.70
2019-06-10T05:33:33.945Z,17.70
2019-06-10T05:36:03.726Z,17.80
2019-06-10T05:38:35.355Z,18.00
2019-06-10T05:41:04.425Z,17.90
2019-06-10T05:43:34.687Z,17.70
2019-06-10T05:46:08.765Z,17.60
2019-06-10T05:48:38.288Z,17.60
2019-06-10T05:51:08.186Z,17.70
2019-06-10T05:53:37.641Z,18.00
2019-06-10T05:56:07.143Z,18.10
2019-06-10T05:58:36.627Z,18.00
2019-06-10T06:01:06.007Z,18.00
2019-06-10T06:03:37.031Z,17.70
2019-06-10T06:06:06.867Z,17.80
2019-06-10T06:08:37.482Z,18.10
2019-06-10T06:11:07.067Z,18.20
2019-06-10T06:13:37.982Z,18.10
2019-06-10T06:16:07.968Z,18.30
2019-06-10T06:18:38.363Z,18.40
2019-06-10T06:21:22.347Z,18.50
2019-06-10T06:23:43.407Z,18.60
2019-06-10T06:26:16.207Z,18.60
2019-06-10T06:28:43.606Z,18.70
2019-06-10T06:31:13.229Z,18.80
2019-06-10T06:33:43.221Z,18.80
2019-06-10T06:36:13.252Z,18.70
2019-06-10T06:38:43.823Z,18.60
2019-06-10T06:41:13.914Z,18.70
2019-06-10T06:43:45.337Z,19.10
2019-06-10T06:46:14.610Z,19.50
2019-06-10T06:48:44.284Z,19.80
2019-06-10T06:51:14.155Z,20.00
2019-06-10T06:53:51.417Z,20.10
2019-06-10T06:56:15.016Z,20.00
2019-06-10T06:58:44.650Z,20.10
2019-06-10T07:01:14.891Z,20.40
2019-06-10T07:03:45.441Z,20.50
2019-06-10T07:06:15.953Z,20.50
2019-06-10T07:09:00.272Z,20.50
2019-06-10T07:11:18.899Z,20.40
2019-06-10T07:13:48.851Z,20.00
2019-06-10T07:16:18.331Z,19.40
2019-06-10T07:18:50.123Z,19.80
2019-06-10T07:21:19.251Z,19.60
2019-06-10T07:23:48.751Z,19.60
2019-06-10T07:26:19.351Z,19.60
2019-06-10T07:28:49.192Z,19.60
2019-06-10T07:31:24.000Z,19.70
2019-06-10T07:33:52.330Z,19.80
2019-06-10T07:36:23.593Z,20.00
2019-06-10T07:38:53.805Z,20.00
2019-06-10T07:41:23.725Z,20.00
2019-06-10T07:43:53.415Z,20.10
2019-06-10T07:46:23.245Z,20.20
2019-06-10T07:48:56.458Z,20.00
2019-06-10T07:51:25.604Z,20.10
2019-06-10T07:53:55.073Z,20.10
2019-06-10T07:56:24.753Z,20.00
2019-06-10T07:58:54.292Z,19.90
2019-06-10T08:01:23.835Z,19.90
2019-06-10T08:03:53.175Z,19.80
2019-06-10T08:06:23.045Z,20.00
2019-06-10T08:08:53.411Z,20.00
2019-06-10T08:11:23.315Z,19.80
2019-06-10T08:13:53.891Z,19.80
2019-06-10T08:16:23.882Z,19.90
2019-06-10T08:19:20.471Z,19.90
2019-06-10T08:21:24.547Z,20.10
2019-06-10T08:23:54.783Z,20.20
2019-06-10T08:26:24.115Z,20.30
2019-06-10T08:28:53.540Z,19.90
2019-06-10T08:31:22.907Z,19.90
2019-06-10T08:33:53.440Z,20.00
2019-06-10T08:36:23.191Z,20.10
2019-06-10T08:38:53.077Z,20.10
2019-06-10T08:41:23.238Z,20.30
2019-06-10T08:43:53.022Z,20.30
2019-06-10T08:46:22.771Z,20.30
2019-06-10T08:48:52.723Z,20.40
2019-06-10T08:51:23.592Z,20.50
2019-06-10T08:53:53.496Z,20.80
2019-06-10T08:56:22.878Z,21.00
2019-06-10T08:58:54.134Z,21.20
2019-06-10T09:01:23.598Z,21.10
2019-06-10T09:03:53.690Z,20.90
2019-06-10T09:06:23.323Z,20.70
2019-06-10T09:08:54.653Z,20.20
2019-06-10T09:11:24.010Z,19.90
2019-06-10T09:13:53.460Z,20.00
2019-06-10T09:16:23.068Z,20.00
2019-06-10T09:18:55.225Z,20.50
2019-06-10T09:21:23.903Z,21.10
2019-06-10T09:23:59.656Z,21.00
2019-06-10T09:26:24.553Z,21.20
2019-06-10T09:28:56.594Z,21.90
2019-06-10T09:31:25.701Z,22.60
2019-06-10T09:33:56.982Z,22.30
2019-06-10T09:36:27.344Z,21.50
2019-06-10T09:38:56.803Z,21.50
2019-06-10T09:41:36.301Z,21.90
2019-06-10T09:43:57.630Z,21.60
2019-06-10T09:46:29.147Z,21.80
2019-06-10T09:48:59.058Z,21.70
2019-06-10T09:51:28.494Z,21.90
2019-06-10T09:54:03.159Z,22.10
2019-06-10T09:56:29.396Z,22.30
2019-06-10T09:58:58.783Z,22.60
2019-06-10T10:01:28.235Z,23.00
2019-06-10T10:04:00.271Z,22.70
2019-06-10T10:06:29.527Z,22.30
2019-06-10T10:09:00.119Z,22.10
2019-06-10T10:11:31.951Z,21.90
2019-06-10T10:14:05.241Z,22.40
2019-06-10T10:16:33.884Z,23.00
2019-06-10T10:19:05.130Z,23.70
2019-06-10T10:21:34.270Z,23.50
2019-06-10T10:24:10.559Z,23.40
2019-06-10T10:26:36.276Z,23.60
2019-06-10T10:29:05.727Z,23.30
2019-06-10T10:31:35.607Z,23.20
2019-06-10T10:34:05.027Z,23.30
2019-06-10T10:36:34.407Z,22.80
2019-06-10T10:39:06.219Z,22.50
2019-06-10T10:41:35.983Z,22.00
2019-06-10T10:44:05.769Z,22.60
2019-06-10T10:46:35.499Z,22.20
2019-06-10T10:49:04.881Z,22.50
2019-06-10T10:51:34.796Z,22.40
2019-06-10T10:54:20.993Z,22.40
2019-06-10T10:56:35.940Z,22.50
2019-06-10T10:59:05.798Z,22.50
2019-06-10T11:01:35.371Z,22.30
2019-06-10T11:04:05.604Z,22.20
2019-06-10T11:06:35.487Z,22.10
2019-06-10T11:09:08.808Z,22.00
2019-06-10T11:11:43.629Z,21.90
2019-06-10T11:14:14.006Z,21.50
2019-06-10T11:16:43.093Z,22.20
2019-06-10T11:19:13.137Z,23.30
2019-06-10T11:21:43.248Z,23.50
2019-06-10T11:24:15.809Z,24.10
2019-06-10T11:26:43.898Z,23.70
2019-06-10T11:29:13.277Z,24.00
2019-06-10T11:31:42.817Z,24.70
2019-06-10T11:34:12.826Z,24.20
2019-06-10T11:36:42.692Z,24.10
2019-06-10T11:39:13.324Z,24.30
2019-06-10T11:41:43.700Z,24.80
2019-06-10T11:44:13.247Z,25.00
2019-06-10T11:46:43.170Z,25.10
2019-06-10T11:49:12.818Z,25.10
2019-06-10T11:51:43.029Z,25.60
2019-06-10T11:54:12.985Z,25.00
2019-06-10T11:56:42.499Z,25.10
2019-06-10T11:59:13.435Z,24.50
2019-06-10T12:01:43.245Z,24.30
2019-06-10T12:04:12.993Z,24.50
2019-06-10T12:06:42.750Z,24.60
2019-06-10T12:09:13.810Z,24.10
2019-06-10T12:11:46.226Z,24.40
2019-06-10T12:14:16.715Z,24.40
2019-06-10T12:19:17.101Z,23.60
2019-06-10T12:21:46.425Z,23.40
2019-06-10T12:24:16.374Z,23.60
2019-06-10T12:26:47.480Z,23.90
2019-06-10T12:29:17.455Z,23.90
2019-06-10T12:31:47.312Z,24.20
2019-06-10T12:34:16.690Z,24.70
2019-06-10T12:36:46.503Z,24.40
2019-06-10T12:39:17.503Z,24.70
2019-06-10T12:41:46.999Z,24.60
2019-06-10T12:44:16.554Z,24.70
2019-06-10T12:46:46.271Z,24.50
2019-06-10T12:49:18.453Z,24.30
2019-06-10T12:51:46.672Z,24.10
2019-06-10T12:54:15.960Z,24.30
2019-06-10T12:56:45.434Z,23.80
2019-06-10T12:59:14.803Z,23.80
2019-06-10T13:01:45.033Z,23.60
2019-06-10T13:04:14.535Z,23.40
2019-06-10T13:06:46.934Z,23.00
2019-06-10T13:09:17.099Z,22.80
2019-06-10T13:11:46.542Z,22.50
2019-06-10T13:14:18.287Z,22.20
2019-06-10T13:16:46.991Z,22.20
2019-06-10T13:19:16.596Z,22.10
2019-06-10T13:21:46.249Z,21.80
2019-06-10T13:24:16.142Z,21.70
2019-06-10T13:26:45.598Z,21.60
2019-06-10T13:29:17.583Z,21.60
2019-06-10T13:31:46.071Z,21.60
2019-06-10T13:34:15.775Z,21.60
2019-06-10T13:36:45.495Z,21.70
2019-06-10T13:39:17.803Z,21.70
2019-06-10T13:41:49.108Z,21.50
2019-06-10T13:44:19.305Z,21.40
2019-06-10T13:46:49.618Z,21.20
2019-06-10T13:49:25.360Z,21.10
2019-06-10T13:51:53.872Z,20.80
2019-06-10T13:54:23.266Z,21.10
2019-06-10T13:56:52.823Z,21.20
2019-06-10T13:59:23.112Z,21.10
2019-06-10T14:01:53.168Z,21.10
2019-06-10T14:04:25.762Z,21.10
2019-06-10T14:06:57.234Z,21.00
2019-06-10T14:09:27.562Z,20.90
2019-06-10T14:11:57.503Z,21.10
2019-06-10T14:14:28.803Z,20.20
2019-06-10T14:17:01.275Z,21.00
2019-06-10T14:19:32.473Z,21.00
2019-06-10T14:22:04.400Z,21.00
2019-06-10T14:24:33.891Z,21.20
2019-06-10T14:27:06.711Z,21.00
2019-06-10T14:29:34.508Z,21.10
2019-06-10T14:32:05.806Z,21.10
2019-06-10T14:34:35.271Z,21.10
2019-06-10T14:37:05.803Z,20.60
2019-06-10T14:39:35.285Z,20.60
2019-06-10T14:42:06.515Z,20.60
2019-06-10T14:44:42.114Z,20.60
2019-06-10T14:47:13.971Z,20.70
2019-06-10T14:49:43.188Z,20.60
2019-06-10T14:52:15.161Z,20.50
2019-06-10T14:54:43.931Z,20.60
2019-06-10T14:57:15.097Z,20.70
2019-06-10T14:59:44.752Z,20.90
2019-06-10T15:02:15.670Z,20.70
2019-06-10T15:04:45.179Z,20.70
2019-06-10T15:07:15.541Z,20.80
2019-06-10T15:09:46.414Z,20.70
2019-06-10T15:12:17.380Z,20.50
2019-06-10T15:14:46.958Z,20.60
2019-06-10T15:17:16.826Z,20.40
2019-06-10T15:19:46.378Z,20.40
2019-06-10T15:22:17.055Z,20.30
2019-06-10T15:24:46.467Z,20.30
2019-06-10T15:27:23.334Z,20.20
2019-06-10T15:29:46.809Z,20.40
2019-06-10T15:32:27.756Z,20.50
2019-06-10T15:34:47.704Z,20.60
2019-06-10T15:37:18.903Z,20.70
2019-06-10T15:39:48.123Z,20.60
2019-06-10T15:42:17.829Z,20.60
2019-06-10T15:44:52.514Z,20.50
2019-06-10T15:47:21.131Z,20.70
2019-06-10T15:49:52.362Z,20.70
2019-06-10T15:52:24.789Z,20.80
2019-06-10T15:54:52.589Z,20.70
2019-06-10T15:57:34.852Z,20.70
2019-06-10T15:59:53.030Z,20.60
2019-06-10T16:02:25.437Z,20.60
2019-06-10T16:04:53.469Z,20.60
2019-06-10T16:07:25.499Z,20.10
2019-06-10T16:09:53.906Z,20.20
2019-06-10T16:12:26.574Z,19.90
2019-06-10T16:14:54.432Z,18.50
2019-06-10T16:17:23.940Z,20.20
2019-06-10T16:19:53.480Z,20.20
2019-06-10T16:22:24.945Z,20.20
2019-06-10T16:24:54.331Z,19.60
2019-06-10T16:27:43.219Z,20.40
2019-06-10T16:29:54.899Z,20.30
2019-06-10T16:32:26.430Z,19.90
2019-06-10T16:34:55.639Z,19.90
2019-06-10T16:37:26.724Z,19.90
2019-06-10T16:39:56.541Z,20.00
2019-06-10T16:42:27.479Z,20.00
2019-06-10T16:44:57.256Z,19.70
2019-06-10T16:47:27.295Z,19.60
2019-06-10T16:49:57.052Z,19.50
2019-06-10T16:52:27.511Z,19.90
2019-06-10T16:54:57.380Z,20.00
2019-06-10T16:57:27.764Z,19.90
2019-06-10T16:59:57.481Z,20.00
2019-06-10T17:02:27.043Z,19.90
2019-06-10T17:04:58.467Z,19.90
2019-06-10T17:07:29.085Z,19.80
2019-06-10T17:09:58.822Z,19.80
2019-06-10T17:12:28.378Z,19.80
2019-06-10T17:14:58.294Z,19.90
2019-06-10T17:17:28.670Z,19.90
2019-06-10T17:19:59.225Z,19.80
2019-06-10T17:22:30.079Z,19.80
2019-06-10T17:25:00.027Z,19.80
2019-06-10T17:27:29.745Z,19.80
2019-06-10T17:29:59.385Z,19.80
2019-06-10T17:32:30.065Z,19.60
2019-06-10T17:35:02.374Z,19.70
2019-06-10T17:37:33.668Z,19.70
2019-06-10T17:40:02.797Z,19.40
2019-06-10T17:42:38.010Z,19.50
2019-06-10T17:45:03.806Z,19.40
2019-06-10T17:47:34.662Z,19.40
2019-06-10T17:50:04.965Z,19.60
2019-06-10T17:52:38.553Z,19.40
2019-06-10T17:55:06.668Z,19.30
2019-06-10T17:57:36.316Z,19.60
2019-06-10T18:00:12.210Z,19.60
2019-06-10T18:02:39.640Z,19.50
2019-06-10T18:05:09.324Z,19.50
2019-06-10T18:07:39.295Z,19.30
2019-06-10T18:10:09.419Z,19.30
2019-06-10T18:12:39.506Z,19.30
2019-06-10T18:15:09.341Z,19.30
2019-06-10T18:17:39.164Z,19.20
2019-06-10T18:20:08.827Z,19.30
2019-06-10T18:22:38.240Z,19.20
2019-06-10T18:25:08.069Z,19.20
2019-06-10T18:27:37.858Z,19.10
2019-06-10T18:30:13.253Z,19.10
2019-06-10T18:32:39.445Z,19.00
2019-06-10T18:35:09.786Z,19.00
2019-06-10T18:37:39.527Z,19.00
2019-06-10T18:40:09.806Z,18.90
2019-06-10T18:42:39.910Z,18.90
2019-06-10T18:45:12.864Z,18.90
2019-06-10T18:47:42.284Z,18.90
2019-06-10T18:50:13.454Z,18.90
2019-06-10T18:52:43.436Z,19.00
2019-06-10T18:55:13.547Z,19.00
2019-06-10T18:57:43.129Z,18.90
2019-06-10T19:00:14.654Z,18.90
2019-06-10T19:02:44.507Z,18.90
2019-06-10T19:05:14.568Z,19.00
2019-06-10T19:07:46.803Z,18.90
2019-06-10T19:10:17.187Z,18.90
2019-06-10T19:12:46.648Z,18.80
2019-06-10T19:15:16.792Z,18.80
2019-06-10T19:17:46.431Z,18.80
2019-06-10T19:20:16.419Z,18.90
2019-06-10T19:22:45.839Z,18.80
2019-06-10T19:25:16.969Z,18.90
2019-06-10T19:27:46.885Z,18.90
2019-06-10T19:30:17.069Z,18.80
2019-06-10T19:32:48.910Z,18.80
2019-06-10T19:35:18.549Z,18.80
2019-06-10T19:37:47.999Z,18.80
2019-06-10T19:40:19.190Z,18.60
2019-06-10T19:42:48.710Z,18.40
2019-06-10T19:45:18.292Z,18.40
2019-06-10T19:47:48.070Z,18.20
2019-06-10T19:50:18.044Z,18.20
2019-06-10T19:52:48.071Z,17.50
2019-06-10T19:55:18.950Z,18.20
2019-06-10T19:57:48.491Z,18.40
2019-06-10T20:00:18.412Z,18.60
2019-06-10T20:02:48.071Z,18.30
2019-06-10T20:05:19.730Z,18.40
2019-06-10T20:07:51.214Z,18.30
2019-06-10T20:10:23.067Z,18.30
2019-06-10T20:12:53.732Z,18.40
2019-06-10T20:15:24.631Z,18.40
2019-06-10T20:17:54.173Z,18.50
2019-06-10T20:20:23.663Z,18.30
2019-06-10T20:22:56.493Z,18.40
2019-06-10T20:25:24.183Z,18.40
2019-06-10T20:27:53.751Z,18.40
2019-06-10T20:30:28.217Z,18.40
2019-06-10T20:32:56.084Z,18.30
2019-06-10T20:35:26.313Z,18.20
2019-06-10T20:37:55.705Z,18.40
2019-06-10T20:40:25.328Z,18.40
2019-06-10T20:42:54.770Z,18.20
2019-06-10T20:45:24.512Z,18.10
2019-06-10T20:47:54.033Z,18.10
2019-06-10T20:50:23.714Z,18.10
2019-06-10T20:53:11.062Z,18.10
2019-06-10T20:55:41.223Z,18.10
2019-06-10T20:58:08.606Z,18.00
2019-06-10T21:00:41.938Z,17.90
2019-06-10T21:03:11.175Z,18.00
2019-06-10T21:05:43.757Z,18.00
2019-06-10T21:08:14.111Z,18.00
2019-06-10T21:10:46.302Z,18.00
2019-06-10T21:13:16.217Z,17.90
2019-06-10T21:15:49.942Z,18.00
2019-06-10T21:18:18.350Z,17.80
2019-06-10T21:20:50.071Z,17.50
2019-06-10T21:23:22.366Z,17.50
2019-06-10T21:25:55.188Z,17.60
2019-06-10T21:28:25.223Z,17.50
2019-06-10T21:30:58.803Z,17.50
2019-06-10T21:33:27.637Z,17.30
2019-06-10T21:36:12.429Z,17.40
2019-06-10T21:38:44.336Z,17.30
2019-06-10T21:41:16.124Z,17.40
2019-06-10T21:43:50.188Z,17.30
2019-06-10T21:46:18.186Z,17.20
2019-06-10T21:48:53.239Z,17.10
2019-06-10T21:51:39.757Z,17.10
2019-06-10T21:54:12.655Z,17.00
2019-06-10T21:56:48.935Z,16.90
2019-06-10T22:05:22.408Z,17.00
2019-06-10T22:08:35.536Z,17.00
2019-06-10T22:17:03.263Z,16.80
2019-06-10T22:19:46.489Z,17.00
2019-06-10T22:22:16.944Z,17.00
2019-06-10T22:25:17.135Z,17.10
2019-06-10T22:27:52.733Z,17.10
2019-06-10T22:33:43.157Z,16.90
2019-06-10T22:36:32.560Z,16.80
2019-06-10T22:39:47.746Z,16.70
2019-06-10T22:44:42.410Z,16.60
2019-06-10T22:50:27.459Z,16.60
2019-06-10T22:53:34.251Z,16.70
2019-06-10T22:57:16.332Z,16.80
2019-06-10T22:59:53.578Z,16.80
2019-06-10T23:02:54.623Z,16.90
2019-06-10T23:05:37.243Z,17.00
2019-06-10T23:09:04.022Z,17.00
2019-06-10T23:11:23.860Z,16.90
2019-06-10T23:14:22.636Z,16.90
2019-06-10T23:17:03.027Z,16.70
2019-06-10T23:19:33.121Z,16.70
2019-06-10T23:33:22.971Z,16.60
2019-06-10T23:36:36.414Z,16.50
2019-06-10T23:39:17.988Z,16.50
2019-06-10T23:42:22.758Z,16.40
2019-06-10T23:48:48.177Z,16.50
2019-06-10T23:51:22.813Z,16.60
2019-06-10T23:54:32.296Z,16.50
2019-06-10T23:59:58.341Z,16.50
